createdAt,value
2022-10-23T00:01:39.531Z,20.58
2022-10-23T00:04:11.724Z,18.27
2022-10-23T00:06:40.054Z,20.30
2022-10-23T00:09:10.992Z,19.83
2022-10-23T00:11:39.746Z,19.75
2022-10-23T00:14:09.791Z,19.55
2022-10-23T00:16:38.334Z,18.33
2022-10-23T00:19:07.819Z,17.90
2022-10-23T00:21:36.037Z,20.33
2022-10-23T00:24:04.701Z,19.08
2022-10-23T00:26:32.942Z,19.63
2022-10-23T00:29:01.861Z,18.52
2022-10-23T00:31:31.458Z,18.23
2022-10-23T00:33:59.953Z,18.50
2022-10-23T00:36:28.504Z,18.38
2022-10-23T00:38:57.644Z,19.02
2022-10-23T00:41:28.745Z,19.63
2022-10-23T00:44:07.672Z,18.90
2022-10-23T00:46:38.684Z,20.02
2022-10-23T00:49:08.176Z,18.92
2022-10-23T00:51:41.792Z,22.23
2022-10-23T00:54:23.572Z,23.20
2022-10-23T00:56:55.650Z,21.20
2022-10-23T00:59:24.881Z,20.95
2022-10-23T01:01:55.087Z,20.25
2022-10-23T01:04:24.554Z,19.80
2022-10-23T01:07:00.142Z,19.23
2022-10-23T01:09:33.485Z,21.63
2022-10-23T01:12:13.571Z,19.60
2022-10-23T01:14:51.482Z,19.02
2022-10-23T01:17:30.759Z,17.85
2022-10-23T01:20:15.110Z,17.48
2022-10-23T01:23:00.224Z,18.58
2022-10-23T01:25:45.211Z,17.83
2022-10-23T01:28:23.123Z,16.52
2022-10-23T01:30:51.920Z,17.52
2022-10-23T01:33:26.784Z,15.20
2022-10-23T01:36:03.367Z,17.77
2022-10-23T01:38:40.351Z,18.27
2022-10-23T01:41:21.819Z,20.63
2022-10-23T01:43:55.769Z,16.10
2022-10-23T01:46:26.302Z,16.90
2022-10-23T01:48:57.668Z,16.55
2022-10-23T01:51:30.228Z,17.23
2022-10-23T01:54:08.394Z,16.77
2022-10-23T01:56:42.093Z,16.50
2022-10-23T01:59:15.895Z,16.65
2022-10-23T02:01:48.939Z,17.30
2022-10-23T02:04:23.343Z,16.13
2022-10-23T02:06:51.967Z,17.25
2022-10-23T02:09:20.455Z,16.48
2022-10-23T02:11:55.916Z,15.23
2022-10-23T02:14:37.240Z,15.02
2022-10-23T02:17:16.550Z,14.63
2022-10-23T02:19:49.859Z,16.92
2022-10-23T02:22:22.657Z,14.95
2022-10-23T02:24:54.350Z,16.90
2022-10-23T02:27:27.314Z,13.25
2022-10-23T02:30:04.540Z,15.15
2022-10-23T02:32:35.230Z,13.85
2022-10-23T02:35:03.896Z,15.05
2022-10-23T02:37:32.360Z,15.45
2022-10-23T02:40:03.938Z,13.68
2022-10-23T02:42:45.843Z,15.57
2022-10-23T02:45:23.312Z,14.45
2022-10-23T02:47:58.979Z,13.20
2022-10-23T02:50:32.535Z,13.50
2022-10-23T02:53:09.517Z,13.50
2022-10-23T02:55:52.219Z,13.35
2022-10-23T02:58:25.395Z,14.73
2022-10-23T03:01:04.281Z,13.25
2022-10-23T03:03:37.187Z,13.55
2022-10-23T03:06:07.862Z,15.07
2022-10-23T03:08:45.223Z,12.73
2022-10-23T03:11:13.433Z,13.48
2022-10-23T03:13:41.810Z,13.02
2022-10-23T03:16:11.424Z,13.48
2022-10-23T03:18:39.798Z,14.57
2022-10-23T03:21:08.975Z,13.55
2022-10-23T03:23:37.406Z,13.98
2022-10-23T03:26:06.038Z,13.52
2022-10-23T03:28:39.707Z,14.80
2022-10-23T03:31:07.940Z,12.95
2022-10-23T03:33:37.675Z,15.75
2022-10-23T03:36:11.484Z,14.23
2022-10-23T03:38:39.949Z,15.05
2022-10-23T03:41:08.182Z,13.55
2022-10-23T03:43:36.774Z,14.07
2022-10-23T03:46:09.214Z,13.60
2022-10-23T03:48:39.226Z,15.00
2022-10-23T03:51:07.812Z,14.48
2022-10-23T03:53:36.475Z,13.57
2022-10-23T03:56:05.689Z,16.25
2022-10-23T03:58:35.321Z,13.18
2022-10-23T04:01:04.008Z,14.50
2022-10-23T04:03:32.689Z,13.55
2022-10-23T04:06:02.379Z,14.10
2022-10-23T04:08:30.953Z,13.85
2022-10-23T04:10:59.615Z,13.55
2022-10-23T04:13:35.905Z,14.02
2022-10-23T04:16:04.224Z,12.77
2022-10-23T04:18:32.655Z,14.68
2022-10-23T04:21:02.241Z,14.65
2022-10-23T04:23:30.745Z,14.85
2022-10-23T04:25:59.640Z,15.52
2022-10-23T04:28:28.617Z,14.73
2022-10-23T04:30:56.857Z,19.30
2022-10-23T04:33:26.205Z,16.67
2022-10-23T04:35:54.467Z,16.15
2022-10-23T04:38:24.206Z,14.30
2022-10-23T04:40:52.524Z,16.80
2022-10-23T04:43:24.656Z,16.13
2022-10-23T04:45:53.277Z,17.45
2022-10-23T04:48:25.545Z,16.00
2022-10-23T04:51:15.438Z,17.65
2022-10-23T04:54:03.705Z,15.77
2022-10-23T04:56:52.243Z,15.68
2022-10-23T04:59:22.717Z,16.20
2022-10-23T05:01:50.957Z,18.20
2022-10-23T05:04:20.145Z,16.27
2022-10-23T05:07:08.730Z,17.20
2022-10-23T05:10:11.193Z,17.70
2022-10-23T05:12:46.305Z,16.02
2022-10-23T05:15:14.834Z,17.25
2022-10-23T05:17:47.694Z,16.75
2022-10-23T05:20:20.834Z,17.55
2022-10-23T05:22:51.287Z,16.80
2022-10-23T05:25:24.038Z,16.85
2022-10-23T05:28:00.107Z,15.73
2022-10-23T05:30:28.745Z,18.42
2022-10-23T05:32:57.693Z,17.23
2022-10-23T05:35:29.991Z,14.07
2022-10-23T05:38:00.389Z,14.27
2022-10-23T05:40:30.702Z,16.10
2022-10-23T05:43:03.804Z,14.35
2022-10-23T05:45:50.573Z,15.43
2022-10-23T05:48:41.303Z,13.57
2022-10-23T05:51:39.115Z,12.07
2022-10-23T05:54:27.651Z,13.85
2022-10-23T05:57:36.399Z,14.32
2022-10-23T06:00:10.467Z,14.13
2022-10-23T06:02:50.726Z,13.10
2022-10-23T06:05:34.271Z,14.70
2022-10-23T06:08:17.680Z,16.58
2022-10-23T06:10:46.209Z,16.55
2022-10-23T06:13:15.979Z,15.32
2022-10-23T06:15:44.483Z,15.25
2022-10-23T06:18:24.303Z,14.57
2022-10-23T06:21:05.658Z,16.63
2022-10-23T06:23:34.421Z,15.13
2022-10-23T06:26:11.246Z,16.02
2022-10-23T06:28:52.252Z,16.38
2022-10-23T06:31:23.607Z,14.80
2022-10-23T06:33:52.734Z,17.42
2022-10-23T06:36:21.026Z,16.58
2022-10-23T06:38:50.424Z,15.65
2022-10-23T06:41:21.051Z,16.98
2022-10-23T06:43:56.482Z,15.65
2022-10-23T06:46:30.007Z,17.85
2022-10-23T06:49:04.758Z,19.42
2022-10-23T06:51:37.493Z,16.60
2022-10-23T06:54:07.331Z,17.73
2022-10-23T06:56:55.444Z,18.05
2022-10-23T06:59:32.884Z,18.23
2022-10-23T07:02:01.853Z,18.25
2022-10-23T07:04:30.981Z,18.90
2022-10-23T07:07:00.605Z,17.98
2022-10-23T07:09:37.270Z,20.23
2022-10-23T07:12:17.529Z,17.25
2022-10-23T07:14:53.235Z,17.05
2022-10-23T07:17:22.475Z,19.63
2022-10-23T07:19:51.143Z,21.08
2022-10-23T07:22:19.332Z,21.08
2022-10-23T07:25:10.795Z,19.27
2022-10-23T07:27:40.930Z,16.85
2022-10-23T07:30:14.230Z,17.38
2022-10-23T07:32:48.515Z,17.65
2022-10-23T07:35:19.634Z,16.70
2022-10-23T07:38:04.847Z,17.50
2022-10-23T07:40:37.947Z,18.25
2022-10-23T07:43:08.253Z,16.17
2022-10-23T07:45:38.042Z,17.13
2022-10-23T07:48:17.415Z,16.55
2022-10-23T07:51:01.708Z,15.75
2022-10-23T07:53:31.328Z,16.17
2022-10-23T07:56:13.736Z,16.23
2022-10-23T07:59:07.827Z,16.58
2022-10-23T08:01:40.097Z,16.33
2022-10-23T08:04:08.590Z,15.70
2022-10-23T08:06:42.171Z,16.90
2022-10-23T08:09:11.058Z,16.10
2022-10-23T08:11:42.335Z,15.50
2022-10-23T08:14:12.412Z,15.55
2022-10-23T08:16:44.011Z,15.60
2022-10-23T08:19:18.612Z,17.27
2022-10-23T08:21:48.655Z,15.52
2022-10-23T08:24:17.957Z,14.95
2022-10-23T08:26:50.254Z,16.63
2022-10-23T08:29:20.996Z,15.88
2022-10-23T08:31:55.910Z,15.75
2022-10-23T08:34:31.567Z,15.80
2022-10-23T08:37:02.379Z,15.50
2022-10-23T08:39:30.684Z,14.43
2022-10-23T08:42:22.574Z,14.05
2022-10-23T08:45:01.175Z,14.40
2022-10-23T08:47:40.014Z,15.93
2022-10-23T08:50:37.900Z,13.45
2022-10-23T08:53:14.983Z,14.50
2022-10-23T08:55:46.475Z,15.07
2022-10-23T08:58:19.719Z,15.88
2022-10-23T09:00:50.154Z,16.33
2022-10-23T09:03:20.076Z,15.18
2022-10-23T09:06:00.882Z,12.98
2022-10-23T09:08:40.898Z,15.10
2022-10-23T09:11:13.907Z,14.30
2022-10-23T09:14:15.207Z,14.57
2022-10-23T09:16:54.344Z,15.65
2022-10-23T09:19:28.045Z,16.42
2022-10-23T09:21:57.434Z,18.60
2022-10-23T09:24:31.581Z,16.83
2022-10-23T09:27:01.515Z,18.02
2022-10-23T09:29:33.130Z,17.60
2022-10-23T09:32:02.978Z,18.35
2022-10-23T09:34:34.330Z,17.77
2022-10-23T09:37:03.904Z,20.77
2022-10-23T09:39:33.732Z,18.77
2022-10-23T09:42:03.414Z,17.02
2022-10-23T09:44:34.162Z,15.70
2022-10-23T09:47:12.083Z,15.88
2022-10-23T09:49:48.680Z,17.23
2022-10-23T09:52:26.714Z,14.45
2022-10-23T09:54:58.330Z,15.00
2022-10-23T09:57:31.870Z,16.17
2022-10-23T10:00:02.959Z,15.90
2022-10-23T10:02:40.630Z,15.73
2022-10-23T10:05:54.355Z,15.45
2022-10-23T10:08:30.888Z,14.68
2022-10-23T10:11:02.675Z,15.20
2022-10-23T10:13:54.068Z,14.15
2022-10-23T10:16:32.511Z,14.13
2022-10-23T10:19:07.521Z,16.30
2022-10-23T10:21:44.063Z,13.35
2022-10-23T10:24:19.869Z,13.30
2022-10-23T10:26:59.261Z,13.95
2022-10-23T10:29:45.748Z,12.38
2022-10-23T10:32:32.041Z,14.40
2022-10-23T10:35:16.030Z,15.63
2022-10-23T10:38:00.561Z,13.65
2022-10-23T10:40:33.780Z,13.77
2022-10-23T10:43:19.000Z,14.60
2022-10-23T10:45:49.044Z,14.68
2022-10-23T10:48:41.866Z,15.40
2022-10-23T10:51:57.463Z,16.10
2022-10-23T10:54:40.311Z,17.05
2022-10-23T10:57:21.771Z,14.48
2022-10-23T10:59:54.208Z,14.95
2022-10-23T11:02:28.305Z,15.35
2022-10-23T11:05:06.987Z,15.02
2022-10-23T11:07:40.127Z,16.45
2022-10-23T11:10:18.848Z,19.58
2022-10-23T11:12:48.925Z,18.92
2022-10-23T11:15:21.827Z,16.35
2022-10-23T11:17:53.471Z,16.33
2022-10-23T11:20:45.978Z,14.43
2022-10-23T11:23:41.453Z,14.90
2022-10-23T11:26:25.721Z,13.00
2022-10-23T11:29:10.451Z,14.60
2022-10-23T11:31:46.304Z,16.52
2022-10-23T11:34:40.316Z,14.68
2022-10-23T11:37:09.154Z,15.30
2022-10-23T11:39:40.239Z,15.15
2022-10-23T11:42:32.271Z,14.73
2022-10-23T11:45:00.894Z,19.80
2022-10-23T11:47:38.936Z,16.85
2022-10-23T11:50:28.134Z,19.00
2022-10-23T11:53:20.906Z,17.17
2022-10-23T11:56:06.666Z,16.70
2022-10-23T11:58:48.828Z,18.95
2022-10-23T12:01:26.007Z,25.13
2022-10-23T12:03:59.941Z,20.20
2022-10-23T12:06:33.090Z,17.30
2022-10-23T12:09:08.938Z,15.25
2022-10-23T12:11:46.093Z,17.80
2022-10-23T12:14:30.040Z,16.45
2022-10-23T12:16:58.757Z,19.00
2022-10-23T12:19:28.611Z,14.00
2022-10-23T12:22:00.699Z,13.40
2022-10-23T12:24:48.343Z,10.88
2022-10-23T12:27:26.135Z,12.18
2022-10-23T12:30:15.154Z,13.10
2022-10-23T12:33:04.467Z,10.93
2022-10-23T12:36:08.207Z,10.63
2022-10-23T12:38:44.645Z,9.48
2022-10-23T12:41:16.176Z,9.07
2022-10-23T12:43:54.187Z,9.57
2022-10-23T12:46:36.590Z,11.07
2022-10-23T12:49:15.924Z,10.40
2022-10-23T12:51:45.260Z,9.45
2022-10-23T12:54:18.622Z,9.70
2022-10-23T12:56:48.499Z,9.95
2022-10-23T12:59:19.536Z,10.63
2022-10-23T13:01:52.771Z,9.38
2022-10-23T13:04:30.401Z,9.63
2022-10-23T13:07:01.647Z,8.40
2022-10-23T13:09:33.578Z,8.35
2022-10-23T13:12:22.494Z,8.75
2022-10-23T13:14:59.645Z,8.57
2022-10-23T13:17:42.269Z,10.98
2022-10-23T13:20:20.204Z,13.25
2022-10-23T13:22:51.083Z,10.57
2022-10-23T13:25:25.011Z,17.25
2022-10-23T13:28:13.150Z,13.82
2022-10-23T13:30:46.103Z,10.15
2022-10-23T13:33:24.432Z,7.50
2022-10-23T13:35:59.468Z,8.63
2022-10-23T13:38:33.050Z,6.57
2022-10-23T13:41:02.557Z,6.30
2022-10-23T13:43:32.436Z,6.32
2022-10-23T13:46:02.727Z,7.00
2022-10-23T13:48:34.619Z,9.52
2022-10-23T13:51:13.073Z,10.02
2022-10-23T13:53:41.488Z,11.13
2022-10-23T13:56:12.664Z,10.82
2022-10-23T13:58:41.397Z,8.60
2022-10-23T14:01:17.404Z,7.40
2022-10-23T14:03:47.654Z,6.82
2022-10-23T14:06:15.960Z,7.03
2022-10-23T14:08:44.970Z,7.28
2022-10-23T14:13:48.752Z,6.97
2022-10-23T14:16:19.389Z,7.32
2022-10-23T14:18:49.467Z,7.20
2022-10-23T14:21:20.956Z,7.00
2022-10-23T14:23:50.260Z,8.75
2022-10-23T14:26:20.801Z,8.70
2022-10-23T14:28:49.676Z,7.95
2022-10-23T14:31:18.828Z,10.20
2022-10-23T14:33:52.270Z,11.32
2022-10-23T14:36:20.532Z,9.48
2022-10-23T14:38:50.523Z,9.77
2022-10-23T14:41:21.845Z,9.75
2022-10-23T14:43:50.464Z,9.10
2022-10-23T14:46:21.131Z,8.07
2022-10-23T14:48:54.896Z,9.48
2022-10-23T14:51:27.488Z,9.50
2022-10-23T14:53:59.499Z,7.55
2022-10-23T14:56:27.848Z,8.43
2022-10-23T14:59:02.552Z,9.48
2022-10-23T15:01:31.996Z,8.88
2022-10-23T15:04:03.066Z,8.25
2022-10-23T15:06:31.498Z,6.82
2022-10-23T15:09:00.031Z,6.90
2022-10-23T15:11:28.896Z,7.53
2022-10-23T15:13:59.905Z,7.03
2022-10-23T15:16:28.839Z,9.27
2022-10-23T15:18:57.374Z,7.93
2022-10-23T15:21:26.953Z,7.55
2022-10-23T15:23:55.283Z,9.05
2022-10-23T15:26:25.431Z,10.10
2022-10-23T15:28:54.917Z,11.23
2022-10-23T15:31:41.890Z,14.13
2022-10-23T15:34:12.815Z,9.93
2022-10-23T15:36:42.616Z,8.73
2022-10-23T15:39:12.511Z,9.50
2022-10-23T15:41:42.337Z,9.52
2022-10-23T15:44:14.992Z,7.93
2022-10-23T15:46:43.822Z,10.27
2022-10-23T15:49:12.904Z,11.52
2022-10-23T15:51:44.013Z,10.50
2022-10-23T15:54:18.378Z,10.60
2022-10-23T15:56:47.549Z,10.65
2022-10-23T15:59:16.412Z,9.68
2022-10-23T16:01:44.903Z,10.88
2022-10-23T16:04:13.946Z,10.10
2022-10-23T16:06:43.935Z,14.35
2022-10-23T16:09:13.148Z,14.18
2022-10-23T16:11:42.981Z,11.13
2022-10-23T16:14:14.639Z,11.75
2022-10-23T16:16:43.186Z,11.95
2022-10-23T16:19:12.101Z,10.32
2022-10-23T16:21:40.615Z,10.95
2022-10-23T16:24:11.247Z,9.45
2022-10-23T16:26:39.779Z,8.25
2022-10-23T16:29:09.586Z,9.60
2022-10-23T16:31:38.221Z,9.30
2022-10-23T16:34:07.808Z,9.25
2022-10-23T16:36:39.001Z,9.10
2022-10-23T16:39:44.472Z,9.15
2022-10-23T16:42:32.895Z,8.90
2022-10-23T16:45:19.978Z,9.48
2022-10-23T16:47:48.229Z,8.57
2022-10-23T16:50:16.867Z,8.52
2022-10-23T16:52:45.545Z,9.45
2022-10-23T16:55:15.612Z,9.52
2022-10-23T16:57:43.893Z,8.90
2022-10-23T17:00:13.457Z,10.00
2022-10-23T17:02:42.391Z,7.60
2022-10-23T17:05:11.035Z,7.85
2022-10-23T17:07:39.228Z,8.30
2022-10-23T17:10:08.807Z,8.20
2022-10-23T17:12:38.628Z,18.67
2022-10-23T17:15:08.323Z,29.00
2022-10-23T17:17:36.573Z,17.70
2022-10-23T17:20:05.657Z,18.02
2022-10-23T17:22:35.489Z,14.57
2022-10-23T17:25:04.418Z,11.43
2022-10-23T17:27:32.723Z,11.15
2022-10-23T17:30:02.791Z,8.98
2022-10-23T17:32:36.616Z,11.23
2022-10-23T17:35:07.198Z,9.88
2022-10-23T17:37:35.494Z,17.92
2022-10-23T17:40:05.773Z,15.15
2022-10-23T17:42:34.250Z,11.70
2022-10-23T17:45:04.536Z,20.38
2022-10-23T17:47:32.925Z,23.73
2022-10-23T17:50:01.454Z,19.75
2022-10-23T17:52:30.876Z,14.23
2022-10-23T17:54:59.358Z,12.55
2022-10-23T17:57:27.587Z,12.65
2022-10-23T17:59:56.072Z,11.15
2022-10-23T18:02:25.983Z,10.75
2022-10-23T18:04:54.533Z,11.30
2022-10-23T18:07:24.273Z,11.25
2022-10-23T18:09:52.777Z,14.60
2022-10-23T18:12:21.116Z,16.73
2022-10-23T18:14:49.641Z,12.10
2022-10-23T18:17:18.277Z,12.32
2022-10-23T18:19:51.229Z,11.95
2022-10-23T18:24:53.615Z,11.48
2022-10-23T18:27:21.976Z,10.77
2022-10-23T18:29:51.336Z,10.10
2022-10-23T18:32:21.210Z,11.27
2022-10-23T18:34:52.259Z,11.15
2022-10-23T18:37:21.052Z,11.68
2022-10-23T18:39:49.977Z,12.98
2022-10-23T18:42:18.473Z,12.18
2022-10-23T18:44:50.044Z,13.20
2022-10-23T18:47:19.005Z,11.63
2022-10-23T18:49:47.998Z,11.85
2022-10-23T18:52:18.434Z,11.95
2022-10-23T18:54:47.384Z,11.80
2022-10-23T18:57:15.945Z,11.60
2022-10-23T18:59:44.551Z,12.27
2022-10-23T19:02:13.623Z,20.67
2022-10-23T19:04:42.291Z,14.43
2022-10-23T19:07:11.163Z,13.20
2022-10-23T19:09:45.750Z,13.45
2022-10-23T19:14:48.289Z,13.68
2022-10-23T19:17:19.867Z,13.30
2022-10-23T19:19:53.012Z,12.63
2022-10-23T19:22:22.114Z,12.93
2022-10-23T19:24:58.466Z,11.90
2022-10-23T19:27:27.996Z,14.00
2022-10-23T19:29:57.739Z,18.20
2022-10-23T19:32:26.416Z,16.05
2022-10-23T19:34:56.413Z,13.60
2022-10-23T19:37:26.093Z,14.85
2022-10-23T19:39:56.586Z,13.27
2022-10-23T19:42:27.972Z,13.23
2022-10-23T19:44:57.139Z,13.88
2022-10-23T19:47:26.176Z,13.55
2022-10-23T19:49:55.555Z,13.25
2022-10-23T19:52:24.886Z,14.45
2022-10-23T19:54:54.402Z,12.82
2022-10-23T19:57:26.008Z,15.13
2022-10-23T19:59:55.432Z,15.23
2022-10-23T20:02:24.550Z,15.45
2022-10-23T20:04:54.630Z,14.57
2022-10-23T20:07:23.779Z,15.68
2022-10-23T20:09:53.039Z,14.15
2022-10-23T20:12:21.453Z,15.63
2022-10-23T20:14:53.837Z,15.75
2022-10-23T20:17:22.466Z,13.77
2022-10-23T20:19:53.137Z,14.43
2022-10-23T20:22:21.452Z,14.57
2022-10-23T20:24:50.252Z,14.82
2022-10-23T20:27:18.694Z,14.52
2022-10-23T20:29:48.673Z,15.02
2022-10-23T20:32:18.736Z,13.85
2022-10-23T20:34:47.149Z,14.73
2022-10-23T20:37:15.558Z,17.67
2022-10-23T20:39:44.400Z,18.45
2022-10-23T20:42:12.646Z,16.08
2022-10-23T20:44:41.135Z,14.85
2022-10-23T20:47:09.649Z,16.10
2022-10-23T20:49:39.469Z,15.38
2022-10-23T20:52:07.676Z,15.90
2022-10-23T20:54:38.038Z,15.65
2022-10-23T20:57:06.280Z,15.50
2022-10-23T20:59:35.432Z,16.92
2022-10-23T21:02:04.039Z,16.38
2022-10-23T21:04:32.713Z,16.02
2022-10-23T21:07:09.825Z,16.10
2022-10-23T21:09:39.360Z,15.73
2022-10-23T21:12:08.280Z,16.52
2022-10-23T21:14:37.580Z,15.05
2022-10-23T21:17:06.052Z,15.63
2022-10-23T21:19:34.515Z,15.70
2022-10-23T21:22:04.280Z,16.63
2022-10-23T21:24:33.048Z,13.95
2022-10-23T21:27:01.482Z,16.15
2022-10-23T21:29:30.037Z,16.17
2022-10-23T21:31:59.682Z,16.55
2022-10-23T21:34:29.183Z,15.43
2022-10-23T21:37:12.554Z,16.60
2022-10-23T21:39:44.965Z,14.90
2022-10-23T21:42:14.480Z,16.17
2022-10-23T21:44:43.017Z,16.25
2022-10-23T21:47:11.365Z,16.33
2022-10-23T21:49:39.947Z,15.68
2022-10-23T21:52:09.080Z,17.17
2022-10-23T21:54:37.926Z,15.93
2022-10-23T21:57:15.011Z,15.50
2022-10-23T21:59:43.934Z,18.63
2022-10-23T22:02:12.521Z,17.10
2022-10-23T22:04:41.516Z,16.42
2022-10-23T22:07:10.870Z,16.45
2022-10-23T22:09:39.573Z,16.05
2022-10-23T22:12:11.865Z,16.33
2022-10-23T22:14:40.710Z,17.13
2022-10-23T22:17:09.132Z,17.83
2022-10-23T22:19:37.596Z,16.35
2022-10-23T22:22:05.930Z,15.50
2022-10-23T22:24:34.441Z,16.80
2022-10-23T22:27:02.828Z,15.63
2022-10-23T22:29:32.815Z,16.17
2022-10-23T22:32:01.184Z,15.55
2022-10-23T22:37:19.656Z,16.10
2022-10-23T22:39:51.386Z,16.67
2022-10-23T22:42:19.733Z,16.80
2022-10-23T22:44:49.531Z,17.30
2022-10-23T22:47:17.783Z,15.20
2022-10-23T22:49:46.196Z,15.48
2022-10-23T22:52:14.785Z,15.52
2022-10-23T22:54:43.316Z,16.33
2022-10-23T22:57:11.548Z,15.80
2022-10-23T22:59:40.204Z,16.23
2022-10-23T23:02:24.690Z,15.50
2022-10-23T23:04:53.110Z,17.58
2022-10-23T23:07:21.283Z,16.23
2022-10-23T23:09:49.782Z,16.77
2022-10-23T23:12:17.999Z,17.80
2022-10-23T23:14:46.550Z,22.25
2022-10-23T23:17:16.029Z,16.15
2022-10-23T23:19:44.414Z,20.77
2022-10-23T23:22:12.720Z,16.75
2022-10-23T23:24:41.167Z,16.95
2022-10-23T23:27:09.537Z,15.85
2022-10-23T23:29:37.905Z,14.57
2022-10-23T23:32:07.042Z,14.88
2022-10-23T23:34:36.912Z,17.48
2022-10-23T23:37:05.086Z,17.13
2022-10-23T23:39:33.720Z,16.27
2022-10-23T23:42:02.472Z,18.75
2022-10-23T23:44:30.883Z,17.52
2022-10-23T23:46:59.362Z,19.13
2022-10-23T23:49:28.077Z,20.40
2022-10-23T23:51:57.621Z,18.15
2022-10-23T23:54:26.355Z,15.15
2022-10-23T23:56:59.032Z,17.33
2022-10-23T23:59:28.160Z,36.63
